createdAt,value
2019-04-03T00:00:52.882Z,23.63
2019-04-03T00:06:01.180Z,22.57
2019-04-03T00:11:09.680Z,23.42
2019-04-03T00:16:17.576Z,21.97
2019-04-03T00:21:25.573Z,22.38
2019-04-03T00:26:33.811Z,22.06
2019-04-03T00:31:42.126Z,23.30
2019-04-03T00:36:52.906Z,23.53
2019-04-03T00:41:58.045Z,22.25
2019-04-03T00:47:06.240Z,23.99
2019-04-03T00:52:14.481Z,22.83
2019-04-03T00:57:22.775Z,21.98
2019-04-03T01:02:30.835Z,23.13
2019-04-03T01:07:38.907Z,23.61
2019-04-03T01:12:47.166Z,22.35
2019-04-03T01:17:55.245Z,23.22
2019-04-03T01:23:03.417Z,23.34
2019-04-03T01:28:11.845Z,23.44
2019-04-03T01:33:19.727Z,23.86
2019-04-03T01:38:27.983Z,21.31
2019-04-03T01:43:36.054Z,20.61
2019-04-03T01:48:44.133Z,21.62
2019-04-03T01:53:52.373Z,21.30
2019-04-03T01:59:00.640Z,21.39
2019-04-03T02:04:09.085Z,22.57
2019-04-03T02:09:17.170Z,22.63
2019-04-03T02:14:25.511Z,21.64
2019-04-03T02:19:33.622Z,23.23
2019-04-03T02:24:41.882Z,23.79
2019-04-03T02:29:50.097Z,21.64
2019-04-03T02:34:58.573Z,23.20
2019-04-03T02:40:06.621Z,22.96
2019-04-03T02:45:14.813Z,22.09
2019-04-03T02:50:23.184Z,22.78
2019-04-03T02:55:31.302Z,22.50
2019-04-03T03:00:40.019Z,24.14
2019-04-03T03:05:48.047Z,21.74
2019-04-03T03:10:56.947Z,22.91
2019-04-03T03:16:05.255Z,23.66
2019-04-03T03:21:14.229Z,22.40
2019-04-03T03:26:20.896Z,23.89
2019-04-03T03:31:59.221Z,24.13
2019-04-03T03:36:36.987Z,24.56
2019-04-03T03:41:44.242Z,23.38
2019-04-03T03:46:52.487Z,23.01
2019-04-03T03:52:04.100Z,24.02
2019-04-03T03:57:08.346Z,23.75
2019-04-03T04:02:16.513Z,24.27
2019-04-03T04:07:24.799Z,24.77
2019-04-03T04:12:33.300Z,25.49
2019-04-03T04:17:41.419Z,25.74
2019-04-03T04:22:51.229Z,25.16
2019-04-03T04:27:57.081Z,24.27
2019-04-03T04:33:05.284Z,22.99
2019-04-03T04:38:13.450Z,26.63
2019-04-03T04:43:21.646Z,24.96
2019-04-03T04:48:29.963Z,26.62
2019-04-03T04:53:38.072Z,25.06
2019-04-03T04:58:46.139Z,24.99
2019-04-03T05:03:55.441Z,24.16
2019-04-03T05:09:04.246Z,24.50
2019-04-03T05:14:12.048Z,24.37
2019-04-03T05:19:19.619Z,25.91
2019-04-03T05:24:28.479Z,23.54
2019-04-03T05:29:34.755Z,23.77
2019-04-03T05:34:44.410Z,24.76
2019-04-03T05:39:54.704Z,24.02
2019-04-03T05:45:03.859Z,24.78
2019-04-03T05:50:08.679Z,24.11
2019-04-03T05:55:16.854Z,23.47
2019-04-03T06:00:25.217Z,25.48
2019-04-03T06:05:33.607Z,23.98
2019-04-03T06:10:42.197Z,22.64
2019-04-03T06:16:02.725Z,23.86
2019-04-03T06:20:56.126Z,23.68
2019-04-03T06:26:01.039Z,22.08
2019-04-03T06:30:59.185Z,22.40
2019-04-03T06:35:59.871Z,22.96
2019-04-03T06:41:09.045Z,23.81
2019-04-03T06:46:16.079Z,23.05
2019-04-03T06:51:24.690Z,24.71
2019-04-03T06:56:33.133Z,25.22
2019-04-03T07:01:43.637Z,20.66
2019-04-03T07:06:42.787Z,20.89
2019-04-03T07:11:49.836Z,19.81
2019-04-03T07:17:00.296Z,21.86
2019-04-03T07:22:08.915Z,20.78
2019-04-03T07:27:09.387Z,19.98
2019-04-03T07:32:17.745Z,20.69
2019-04-03T07:37:26.147Z,20.91
2019-04-03T07:42:34.765Z,21.33
2019-04-03T07:47:43.106Z,22.63
2019-04-03T07:52:51.395Z,19.93
2019-04-03T07:58:00.784Z,20.07
2019-04-03T08:03:06.279Z,19.32
2019-04-03T08:08:14.744Z,19.91
2019-04-03T08:13:23.293Z,19.04
2019-04-03T08:18:32.242Z,19.66
2019-04-03T08:23:40.918Z,18.42
2019-04-03T08:28:49.198Z,20.73
2019-04-03T08:33:59.161Z,20.44
2019-04-03T08:39:05.098Z,19.93
2019-04-03T08:44:13.554Z,18.51
2019-04-03T08:49:21.832Z,19.97
2019-04-03T08:54:30.230Z,21.55
2019-04-03T08:59:38.694Z,22.84
2019-04-03T09:04:48.069Z,21.53
2019-04-03T09:09:54.577Z,22.18
2019-04-03T09:15:03.240Z,19.68
2019-04-03T09:20:13.446Z,20.43
2019-04-03T09:25:19.133Z,20.86
2019-04-03T09:30:27.525Z,22.20
2019-04-03T09:35:35.931Z,21.32
2019-04-03T09:40:47.334Z,22.08
2019-04-03T09:45:52.484Z,21.28
2019-04-03T09:51:01.040Z,19.81
2019-04-03T09:56:12.382Z,20.94
2019-04-03T10:01:17.725Z,21.53
2019-04-03T10:06:16.348Z,23.66
2019-04-03T10:11:24.657Z,22.99
2019-04-03T10:16:34.935Z,24.23
2019-04-03T10:21:41.010Z,25.14
2019-04-03T10:26:48.052Z,25.70
2019-04-03T10:31:56.477Z,26.63
2019-04-03T10:37:04.964Z,24.49
2019-04-03T10:42:13.462Z,25.78
2019-04-03T10:47:26.595Z,24.72
2019-04-03T10:52:29.488Z,23.11
2019-04-03T10:57:37.793Z,22.69
2019-04-03T11:02:46.445Z,18.94
2019-04-03T11:07:54.761Z,19.73
2019-04-03T11:13:03.799Z,16.61
2019-04-03T11:18:11.003Z,16.43
2019-04-03T11:23:20.280Z,19.95
2019-04-03T11:28:27.076Z,17.77
2019-04-03T11:33:35.440Z,14.28
2019-04-03T11:38:43.833Z,11.79
2019-04-03T11:43:52.183Z,13.34
2019-04-03T11:49:01.309Z,12.63
2019-04-03T11:54:09.444Z,12.17
2019-04-03T11:59:17.887Z,10.42
2019-04-03T12:04:26.098Z,10.47
2019-04-03T12:09:34.286Z,11.14
2019-04-03T12:14:42.385Z,11.00
2019-04-03T12:19:50.905Z,11.98
2019-04-03T12:24:58.861Z,11.58
2019-04-03T12:30:07.239Z,11.34
2019-04-03T12:35:15.318Z,12.46
2019-04-03T12:40:23.768Z,11.02
2019-04-03T12:45:31.819Z,10.18
2019-04-03T12:50:40.109Z,10.30
2019-04-03T12:55:52.415Z,8.83
2019-04-03T13:00:50.315Z,6.98
2019-04-03T13:05:58.122Z,6.20
2019-04-03T13:11:06.827Z,5.42
2019-04-03T13:16:15.229Z,4.70
2019-04-03T13:21:24.294Z,4.19
2019-04-03T13:26:31.618Z,4.11
2019-04-03T13:31:39.974Z,5.25
2019-04-03T13:36:40.174Z,6.82
2019-04-03T13:41:48.432Z,4.60
2019-04-03T13:46:57.592Z,3.83
2019-04-03T13:52:10.043Z,3.96
2019-04-03T14:02:07.491Z,6.09
2019-04-03T14:07:15.924Z,6.17
2019-04-03T14:12:24.123Z,5.62
2019-04-03T14:17:32.285Z,5.35
2019-04-03T14:22:42.843Z,4.76
2019-04-03T14:27:50.017Z,4.12
2019-04-03T14:32:58.534Z,4.01
2019-04-03T14:38:05.925Z,3.90
2019-04-03T14:43:14.387Z,3.89
2019-04-03T14:48:25.504Z,5.92
2019-04-03T14:53:30.600Z,5.52
2019-04-03T14:58:39.277Z,5.63
2019-04-03T15:03:47.774Z,7.18
2019-04-03T15:08:56.035Z,7.32
2019-04-03T15:14:04.114Z,9.15
2019-04-03T15:19:13.746Z,8.84
2019-04-03T15:24:20.193Z,9.54
2019-04-03T15:29:28.375Z,10.09
2019-04-03T15:34:36.645Z,9.94
2019-04-03T15:39:47.785Z,11.12
2019-04-03T15:44:58.755Z,12.15
2019-04-03T15:49:58.825Z,12.66
2019-04-03T15:55:04.875Z,13.97
2019-04-03T16:00:13.792Z,13.66
2019-04-03T16:05:22.232Z,13.30
2019-04-03T16:10:37.349Z,14.20
2019-04-03T16:15:34.126Z,13.52
2019-04-03T16:20:42.632Z,14.53
2019-04-03T16:25:50.772Z,14.60
2019-04-03T16:30:58.342Z,13.21
2019-04-03T16:36:07.018Z,14.16
2019-04-03T16:41:15.747Z,12.98
2019-04-03T16:46:23.728Z,11.75
2019-04-03T16:51:33.714Z,12.04
2019-04-03T16:56:40.265Z,13.20
2019-04-03T17:01:48.773Z,14.23
2019-04-03T17:06:56.996Z,13.73
2019-04-03T17:12:05.151Z,13.26
2019-04-03T17:17:14.818Z,11.74
2019-04-03T17:22:24.688Z,12.21
2019-04-03T17:27:23.153Z,11.51
2019-04-03T17:32:31.583Z,11.57
2019-04-03T17:37:40.766Z,12.62
2019-04-03T17:42:49.064Z,12.26
2019-04-03T17:47:58.353Z,12.03
2019-04-03T17:53:07.092Z,12.64
2019-04-03T17:58:16.838Z,12.52
2019-04-03T18:03:22.478Z,13.01
2019-04-03T18:08:32.515Z,12.23
2019-04-03T18:13:36.799Z,14.06
2019-04-03T18:18:45.021Z,14.73
2019-04-03T18:23:53.508Z,13.78
2019-04-03T18:29:01.456Z,12.05
2019-04-03T18:34:09.707Z,14.06
2019-04-03T18:39:18.002Z,14.58
2019-04-03T18:44:27.827Z,13.62
2019-04-03T18:49:33.880Z,14.49
2019-04-03T18:54:42.491Z,12.97
2019-04-03T18:59:49.494Z,16.61
2019-04-03T19:05:02.142Z,16.97
2019-04-03T19:10:07.340Z,16.08
2019-04-03T19:15:12.854Z,17.84
2019-04-03T19:20:20.950Z,19.22
2019-04-03T19:25:29.658Z,19.01
2019-04-03T19:30:37.924Z,18.36
2019-04-03T19:35:44.365Z,19.24
2019-04-03T19:40:52.427Z,20.38
2019-04-03T19:46:00.442Z,21.96
2019-04-03T19:51:08.509Z,20.35
2019-04-03T19:56:16.578Z,18.76
2019-04-03T20:01:24.804Z,19.02
2019-04-03T20:06:32.902Z,19.03
2019-04-03T20:11:41.142Z,21.21
2019-04-03T20:16:49.290Z,20.46
2019-04-03T20:21:58.225Z,22.76
2019-04-03T20:27:06.639Z,20.85
2019-04-03T20:32:14.939Z,22.87
2019-04-03T20:37:25.993Z,22.28
2019-04-03T20:42:30.779Z,24.08
2019-04-03T20:47:39.289Z,22.72
2019-04-03T20:52:47.638Z,23.68
2019-04-03T20:57:56.369Z,26.14
2019-04-03T21:03:04.418Z,26.93
2019-04-03T21:08:12.859Z,27.69
2019-04-03T21:13:21.057Z,27.79
2019-04-03T21:18:29.252Z,27.80
2019-04-03T21:23:37.458Z,28.99
2019-04-03T21:28:45.750Z,27.86
2019-04-03T21:33:55.739Z,26.34
2019-04-03T21:38:54.769Z,28.36
2019-04-03T21:44:03.336Z,26.60
2019-04-03T21:49:11.747Z,28.49
2019-04-03T21:54:20.178Z,29.35
2019-04-03T21:59:28.349Z,30.05
2019-04-03T22:04:36.576Z,28.08
2019-04-03T22:09:44.774Z,32.78
2019-04-03T22:14:53.134Z,28.96
2019-04-03T22:20:01.322Z,27.43
2019-04-03T22:25:09.611Z,28.57
2019-04-03T22:30:18.054Z,27.67
2019-04-03T22:35:27.949Z,27.87
2019-04-03T22:40:33.839Z,30.71
2019-04-03T22:45:42.134Z,30.65
2019-04-03T22:50:50.546Z,31.37
2019-04-03T22:55:58.692Z,31.36
2019-04-03T23:01:06.827Z,33.02
2019-04-03T23:06:15.013Z,33.72
2019-04-03T23:11:23.245Z,34.22
2019-04-03T23:16:31.504Z,33.49
2019-04-03T23:21:39.584Z,36.77
2019-04-03T23:26:47.749Z,38.29
2019-04-03T23:31:55.898Z,40.59
2019-04-03T23:37:04.250Z,44.83
2019-04-03T23:42:12.581Z,44.96
2019-04-03T23:47:20.831Z,43.26
2019-04-03T23:52:29.919Z,42.03
2019-04-03T23:57:39.600Z,39.15
